Time;durP1;ratioP1;P1;durP2;ratioP2;P2;SDS_P1;SDS_P2;PMS_P1;PMS_P2;Temp;Humidity;BMP_temperature;BMP_pressure;BME280_temperature;BME280_humidity;BME280_pressure;Samples;Min_cycle;Max_cycle;Signal;HPM_P1;HPM_P2
2023/04/11 00:01:12;;;;;;;3.40;2.75;;;;;;;2.69;100.00;97951.25;1697989;75;1884857;-73
2023/04/11 00:03:45;;;;;;;2.90;2.50;;;;;;;2.65;100.00;97947.88;1703314;75;743037;-74
2023/04/11 00:06:15;;;;;;;4.20;3.35;;;;;;;2.60;100.00;97948.31;1710451;75;853479;-72
2023/04/11 00:08:46;;;;;;;3.80;3.20;;;;;;;2.56;100.00;97953.81;1688087;75;1921990;-77
2023/04/11 00:11:17;;;;;;;3.35;2.85;;;;;;;2.60;100.00;97949.09;1711873;75;714995;-71
2023/04/11 00:13:47;;;;;;;3.15;2.85;;;;;;;2.60;100.00;97945.63;1701114;75;846848;-74
2023/04/11 00:16:18;;;;;;;2.95;2.60;;;;;;;2.53;100.00;97925.69;1709297;75;892755;-73
2023/04/11 00:18:51;;;;;;;3.00;2.70;;;;;;;2.57;100.00;97928.28;1703076;75;744903;-73
2023/04/11 00:21:21;;;;;;;3.10;2.60;;;;;;;2.39;100.00;97925.94;1711648;75;671939;-73
2023/04/11 00:23:51;;;;;;;2.70;2.50;;;;;;;2.49;100.00;97916.88;1676101;75;2913766;-73
2023/04/11 00:26:21;;;;;;;2.80;2.45;;;;;;;2.46;100.00;97919.66;1712016;75;676203;-72
2023/04/11 00:28:53;;;;;;;3.15;2.40;;;;;;;2.51;100.00;97913.75;1703036;75;735710;-73
2023/04/11 00:31:23;;;;;;;2.70;2.50;;;;;;;2.48;100.00;97907.25;1711599;75;684802;-74
2023/04/11 00:33:56;;;;;;;3.05;2.30;;;;;;;2.50;100.00;97910.31;1702119;75;744364;-73
2023/04/11 00:36:26;;;;;;;7.50;5.50;;;;;;;2.39;100.00;97900.88;1711276;75;695738;-73
2023/04/11 00:38:57;;;;;;;6.70;5.35;;;;;;;2.35;100.00;97909.03;1702332;75;750110;-74
2023/04/11 00:41:27;;;;;;;6.00;4.70;;;;;;;2.47;100.00;97907.66;1710715;75;773338;-73
2023/04/11 00:43:57;;;;;;;5.40;4.15;;;;;;;2.42;100.00;97894.63;1702745;75;746598;-73
2023/04/11 00:46:30;;;;;;;4.25;3.30;;;;;;;2.40;100.00;97902.38;1711712;75;668871;-75
2023/04/11 00:49:03;;;;;;;3.60;2.70;;;;;;;2.35;100.00;97898.97;1699456;75;974248;-73
2023/04/11 00:51:43;;;;;;;3.20;2.90;;;;;;;2.36;100.00;97897.06;1711514;75;681410;-74
2023/04/11 00:54:15;;;;;;;2.55;2.35;;;;;;;2.38;100.00;97902.78;1703394;75;725471;-73
2023/04/11 00:56:46;;;;;;;2.85;2.50;;;;;;;2.33;100.00;97898.66;1696516;75;1931173;-73
2023/04/11 00:59:16;;;;;;;2.85;2.25;;;;;;;2.23;100.00;97899.59;1703094;75;741345;-72
2023/04/11 01:01:48;;;;;;;3.50;2.70;;;;;;;2.22;100.00;97892.66;1698908;75;1766605;-73
2023/04/11 01:04:22;;;;;;;3.30;2.35;;;;;;;2.19;100.00;97881.91;1702359;75;735824;-73
2023/04/11 01:06:56;;;;;;;3.05;2.25;;;;;;;2.11;100.00;97871.25;1711253;75;679406;-74
2023/04/11 01:09:30;;;;;;;2.70;2.30;;;;;;;2.11;100.00;97871.25;1702487;75;738048;-73
2023/04/11 01:12:01;;;;;;;3.15;2.35;;;;;;;2.09;100.00;97865.50;1709147;75;893596;-75
2023/04/11 01:14:32;;;;;;;2.55;2.15;;;;;;;2.05;100.00;97864.81;1689816;75;1818603;-72
2023/04/11 01:17:06;;;;;;;3.20;2.40;;;;;;;2.06;100.00;97852.81;1711982;75;676958;-73
2023/04/11 01:19:39;;;;;;;2.80;2.35;;;;;;;2.05;100.00;97851.31;1701846;75;793001;-73
2023/04/11 01:22:10;;;;;;;3.70;2.50;;;;;;;2.06;100.00;97847.41;1711518;75;684603;-72
2023/04/11 01:24:43;;;;;;;3.80;2.70;;;;;;;1.97;100.00;97849.88;1698913;75;958791;-73
2023/04/11 01:27:13;;;;;;;6.20;2.80;;;;;;;1.94;100.00;97856.13;1711948;75;687185;-72
2023/04/11 01:29:43;;;;;;;4.60;3.00;;;;;;;1.94;100.00;97841.88;1702362;75;746018;-72
2023/04/11 01:32:13;;;;;;;4.80;2.95;;;;;;;1.87;100.00;97834.66;1698754;75;1776911;-75
2023/04/11 01:34:44;;;;;;;4.55;3.00;;;;;;;1.85;100.00;97829.69;1678850;75;2733011;-71
2023/04/11 01:37:15;;;;;;;4.40;2.90;;;;;;;1.81;100.00;97828.97;1711384;75;679301;-73
2023/04/11 01:39:48;;;;;;;3.85;2.70;;;;;;;1.82;100.00;97819.69;1628613;75;6870019;-73
2023/04/11 01:42:18;;;;;;;3.30;2.55;;;;;;;1.81;100.00;97823.56;1711546;75;675628;-72
2023/04/11 01:44:49;;;;;;;3.25;2.60;;;;;;;1.72;100.00;97817.94;1702634;75;733583;-74
2023/04/11 01:47:20;;;;;;;3.35;2.60;;;;;;;1.72;100.00;97817.19;1708452;75;930594;-72
2023/04/11 01:49:52;;;;;;;4.70;2.70;;;;;;;1.65;100.00;97821.53;1702925;75;724904;-74
2023/04/11 01:52:22;;;;;;;4.00;3.10;;;;;;;1.63;100.00;97823.13;1711442;75;677116;-74
2023/04/11 01:54:55;;;;;;;7.55;5.50;;;;;;;1.67;100.00;97829.22;1703119;75;739013;-71
2023/04/11 01:57:26;;;;;;;7.70;5.20;;;;;;;1.58;100.00;97824.34;1711046;75;693096;-74
2023/04/11 01:59:56;;;;;;;8.15;4.95;;;;;;;1.63;100.00;97831.22;1702530;75;747671;-73
2023/04/11 02:02:27;;;;;;;4.50;3.60;;;;;;;1.57;100.00;97817.44;1711414;75;673157;-75
2023/04/11 02:04:57;;;;;;;3.70;3.25;;;;;;;1.58;100.00;97823.59;1702351;75;754242;-73
2023/04/11 02:07:28;;;;;;;4.35;3.25;;;;;;;1.59;100.00;97819.69;1712216;75;676131;-73
2023/04/11 02:10:03;;;;;;;3.85;3.20;;;;;;;1.54;100.00;97818.25;1688454;75;1884292;-76
2023/04/11 02:12:33;;;;;;;4.40;3.40;;;;;;;1.46;100.00;97806.06;1711706;75;685777;-72
2023/04/11 02:15:04;;;;;;;4.45;3.05;;;;;;;1.51;100.00;97792.09;1703271;75;747710;-72
2023/04/11 02:17:35;;;;;;;3.75;3.05;;;;;;;1.45;100.00;97778.31;1711841;75;706475;-74
2023/04/11 02:20:08;;;;;;;3.55;2.75;;;;;;;1.57;100.00;97778.91;1702486;75;755014;-72
2023/04/11 02:22:38;;;;;;;7.00;3.50;;;;;;;1.56;100.00;97767.31;1674583;75;3747061;-71
2023/04/11 02:25:12;;;;;;;11.60;5.30;;;;;;;1.53;100.00;97762.00;1699869;75;941912;-71
2023/04/11 02:27:42;;;;;;;10.60;5.60;;;;;;;1.51;100.00;97756.25;1710737;75;678308;-72
2023/04/11 02:30:13;;;;;;;7.75;4.40;;;;;;;1.55;100.00;97746.19;1701744;75;746693;-74
2023/04/11 02:32:45;;;;;;;5.60;3.60;;;;;;;1.58;100.00;97746.09;1711291;75;674518;-74
2023/04/11 02:35:15;;;;;;;8.05;4.85;;;;;;;1.61;100.00;97750.69;1688885;75;1801631;-73
2023/04/11 02:37:46;;;;;;;9.00;6.30;;;;;;;1.50;100.00;97755.50;1711182;75;671503;-73
2023/04/11 02:40:19;;;;;;;10.55;7.15;;;;;;;1.48;100.00;97749.75;1702177;75;748430;-74
2023/04/11 02:42:49;;;;;;;10.45;7.85;;;;;;;1.52;100.00;97742.38;1695466;75;2010839;-74
2023/04/11 02:45:19;;;;;;;10.30;7.70;;;;;;;1.48;100.00;97747.06;1702004;75;771475;-76
2023/04/11 02:47:49;;;;;;;10.40;8.75;;;;;;;1.40;100.00;97751.06;1710541;75;797752;-74
2023/04/11 02:50:20;;;;;;;12.40;9.75;;;;;;;1.38;100.00;97743.38;1702874;75;719246;-74
2023/04/11 02:52:51;;;;;;;10.80;9.05;;;;;;;1.50;100.00;97742.00;1710102;75;858096;-73
2023/04/11 02:55:24;;;;;;;8.85;7.40;;;;;;;1.58;100.00;97743.41;1700798;75;885340;-72
2023/04/11 02:57:55;;;;;;;6.80;5.80;;;;;;;1.64;100.00;97738.31;1698109;75;1855256;-73
2023/04/11 03:00:25;;;;;;;5.50;4.20;;;;;;;1.65;100.00;97740.56;1703072;75;728146;-73
2023/04/11 03:02:55;;;;;;;4.05;3.60;;;;;;;1.68;100.00;97742.47;1710873;75;720508;-72
2023/04/11 03:05:31;;;;;;;4.55;4.05;;;;;;;1.68;100.00;97747.84;1703103;75;742480;-74
2023/04/11 03:08:03;;;;;;;6.50;4.20;;;;;;;1.69;100.00;97735.88;1697008;75;2889551;-73
2023/04/11 03:10:36;;;;;;;5.75;4.20;;;;;;;1.67;100.00;97740.16;1712880;75;679463;-74
2023/04/11 03:13:06;;;;;;;8.00;4.50;;;;;;;1.57;100.00;97733.03;1704386;75;674632;-75
2023/04/11 03:15:36;;;;;;;8.60;4.85;;;;;;;1.56;100.00;97709.91;1711810;75;678965;-76
2023/04/11 03:18:06;;;;;;;;;;;;;;;1.67;100.00;97710.50;1700641;75;927064;-75
2023/04/11 03:20:37;;;;;;;5.30;4.00;;;;;;;1.62;100.00;97700.94;1712021;75;680957;-72
2023/04/11 03:23:07;;;;;;;8.30;3.70;;;;;;;1.61;100.00;97701.34;1704021;75;680013;-75
2023/04/11 03:25:40;;;;;;;4.10;3.20;;;;;;;1.58;100.00;97697.53;1699836;75;1837740;-72
2023/04/11 03:28:10;;;;;;;4.60;3.50;;;;;;;1.64;100.00;97692.44;1705214;75;679752;-73
2023/04/11 03:30:45;;;;;;;4.00;3.15;;;;;;;1.57;100.00;97692.56;1713233;75;670316;-72
2023/04/11 03:33:15;;;;;;;3.40;2.60;;;;;;;1.64;100.00;97674.31;1703176;75;684530;-72
2023/04/11 03:35:45;;;;;;;4.15;2.80;;;;;;;1.65;100.00;97670.41;1710550;75;780351;-73
2023/04/11 03:38:15;;;;;;;3.75;2.60;;;;;;;1.67;100.00;97675.41;1702524;75;691219;-75
2023/04/11 03:40:48;;;;;;;3.10;2.50;;;;;;;1.72;100.00;97672.22;1710642;75;718168;-71
2023/04/11 03:43:19;;;;;;;5.90;3.30;;;;;;;1.70;100.00;97672.63;1703102;75;679212;-72
2023/04/11 03:45:50;;;;;;;5.40;4.20;;;;;;;1.71;100.00;97676.09;1710213;75;701335;-71
2023/04/11 03:48:20;;;;;;;4.70;3.65;;;;;;;1.73;100.00;97679.13;1701836;75;678583;-72
2023/04/11 03:50:50;;;;;;;5.20;4.00;;;;;;;1.73;100.00;97672.97;1710975;75;671504;-72
2023/04/11 03:53:21;;;;;;;5.00;3.30;;;;;;;1.80;100.00;97676.28;1702329;75;676002;-71
2023/04/11 03:55:55;;;;;;;4.10;3.40;;;;;;;1.84;100.00;97678.94;1710857;75;678861;-72
2023/04/11 03:58:25;;;;;;;4.15;2.95;;;;;;;1.83;100.00;97694.38;1702345;75;747268;-71
2023/04/11 04:00:56;;;;;;;4.50;3.50;;;;;;;1.88;100.00;97695.81;1686956;75;2727822;-72
2023/04/11 04:03:26;;;;;;;6.10;4.70;;;;;;;1.85;100.00;97692.03;1699923;75;901384;-71
2023/04/11 04:05:56;;;;;;;5.05;3.85;;;;;;;1.86;100.00;97684.69;1710641;75;678382;-72
2023/04/11 04:08:26;;;;;;;4.40;3.30;;;;;;;1.82;100.00;97683.97;1701912;75;743595;-71
2023/04/11 04:10:59;;;;;;;5.85;4.60;;;;;;;1.60;100.00;97684.41;1710283;75;698295;-75
2023/04/11 04:13:30;;;;;;;5.50;4.60;;;;;;;1.73;100.00;97687.22;1686991;75;1953036;-72
2023/04/11 04:16:00;;;;;;;7.60;5.80;;;;;;;1.60;100.00;97670.91;1659001;75;5035380;-72
2023/04/11 04:18:31;;;;;;;11.35;8.55;;;;;;;1.42;100.00;97671.25;1701967;75;735442;-74
2023/04/11 04:21:01;;;;;;;10.05;7.50;;;;;;;1.60;100.00;97665.50;1711417;75;674653;-73
2023/04/11 04:23:31;;;;;;;10.25;7.35;;;;;;;1.59;100.00;97663.22;1702562;75;728234;-73
2023/04/11 04:26:04;;;;;;;8.80;6.10;;;;;;;1.72;100.00;97655.28;1710990;75;679041;-72
2023/04/11 04:28:34;;;;;;;6.65;5.65;;;;;;;1.80;100.00;97649.31;1702623;75;740902;-71
2023/04/11 04:31:04;;;;;;;8.00;6.00;;;;;;;1.83;100.00;97655.81;1711562;75;673015;-72
2023/04/11 04:33:34;;;;;;;11.60;8.30;;;;;;;1.88;100.00;97668.84;1702823;75;745179;-72
2023/04/11 04:36:05;;;;;;;11.05;8.05;;;;;;;1.74;100.00;97661.03;1711249;75;677100;-71
2023/04/11 04:38:37;;;;;;;8.10;6.45;;;;;;;1.73;100.00;97673.72;1703148;75;749676;-72
2023/04/11 04:41:13;;;;;;;6.25;5.30;;;;;;;1.76;100.00;97670.22;1709585;75;837770;-74
2023/04/11 04:43:44;;;;;;;6.90;5.50;;;;;;;1.73;100.00;97665.63;1702661;75;754131;-72
2023/04/11 04:46:15;;;;;;;5.40;4.20;;;;;;;1.87;100.00;97651.84;1710818;75;678092;-74
2023/04/11 04:48:45;;;;;;;5.95;4.30;;;;;;;1.88;100.00;97650.69;1702304;75;745447;-72
2023/04/11 04:51:15;;;;;;;4.35;3.60;;;;;;;1.87;100.00;97643.75;1710915;75;673732;-73
2023/04/11 04:53:46;;;;;;;4.30;3.10;;;;;;;1.92;100.00;97637.88;1702632;75;746435;-74
2023/04/11 04:56:20;;;;;;;3.60;3.10;;;;;;;1.92;100.00;97650.59;1710914;75;674373;-74
2023/04/11 04:58:50;;;;;;;4.35;3.15;;;;;;;1.97;100.00;97654.75;1702565;75;728227;-71
2023/04/11 05:01:21;;;;;;;4.25;3.20;;;;;;;2.02;100.00;97660.44;1684437;75;2933927;-72
2023/04/11 05:03:58;;;;;;;3.55;3.00;;;;;;;1.99;100.00;97647.75;1701662;75;768277;-71
2023/04/11 05:06:30;;;;;;;3.50;2.90;;;;;;;1.99;100.00;97645.06;1702782;75;692648;-72
2023/04/11 05:09:04;;;;;;;4.50;3.10;;;;;;;2.03;100.00;97645.00;1696287;75;1935099;-71
2023/04/11 05:11:37;;;;;;;4.00;3.30;;;;;;;2.09;100.00;97654.09;1678128;75;2765526;-73
2023/04/11 05:14:08;;;;;;;3.90;3.30;;;;;;;2.11;100.00;97649.81;1710386;75;680890;-73
2023/04/11 05:16:39;;;;;;;4.70;4.05;;;;;;;2.09;100.00;97633.28;1699705;75;856039;-72
2023/04/11 05:19:09;;;;;;;8.10;6.05;;;;;;;1.90;100.00;97636.75;1711398;75;681147;-72
2023/04/11 05:21:40;;;;;;;9.30;6.10;;;;;;;2.11;100.00;97633.59;1702885;75;676816;-74
2023/04/11 05:24:10;;;;;;;6.95;5.55;;;;;;;2.23;100.00;97644.94;1698305;75;1764899;-76
2023/04/11 05:26:43;;;;;;;9.65;6.60;;;;;;;2.27;100.00;97634.81;1702962;75;737641;-72
2023/04/11 05:29:14;;;;;;;18.35;11.55;;;;;;;2.21;100.00;97641.91;1710897;75;681550;-71
2023/04/11 05:31:44;;;;;;;13.10;9.60;;;;;;;2.42;100.00;97643.38;1703374;75;681548;-73
2023/04/11 05:34:14;;;;;;;13.50;10.70;;;;;;;2.36;100.00;97640.41;1710891;75;673423;-71
2023/04/11 05:36:46;;;;;;;13.00;9.20;;;;;;;2.60;100.00;97627.50;1702938;75;687173;-72
2023/04/11 05:39:18;;;;;;;8.50;7.50;;;;;;;2.70;100.00;97623.03;1711335;75;674766;-71
2023/04/11 05:41:55;;;;;;;8.95;7.30;;;;;;;2.67;100.00;97629.25;1701665;75;865690;-74
2023/04/11 05:44:25;;;;;;;9.25;6.60;;;;;;;2.76;100.00;97619.38;1673847;75;3801572;-72
2023/04/11 05:46:56;;;;;;;7.45;6.05;;;;;;;2.85;100.00;97618.78;1701309;75;798667;-72
2023/04/11 05:49:26;;;;;;;8.45;7.55;;;;;;;2.80;100.00;97619.28;1698622;75;1750037;-72
2023/04/11 05:51:56;;;;;;;9.25;7.25;;;;;;;3.01;100.00;97612.59;1702758;75;749026;-75
2023/04/11 05:54:35;;;;;;;8.00;7.20;;;;;;;3.07;100.00;97605.47;1710682;75;676550;-72
2023/04/11 05:57:08;;;;;;;11.85;10.50;;;;;;;3.05;100.00;97612.50;1701791;75;747114;-72
2023/04/11 05:59:38;;;;;;;11.40;10.20;;;;;;;3.15;100.00;97600.63;1710377;75;769208;-71
2023/04/11 06:02:08;;;;;;;12.15;10.00;;;;;;;3.26;100.00;97606.53;1701832;75;742806;-72
2023/04/11 06:04:39;;;;;;;10.75;9.50;;;;;;;3.48;100.00;97603.22;1709726;75;700749;-72
2023/04/11 06:07:09;;;;;;;12.35;10.95;;;;;;;3.70;100.00;97601.44;1699912;75;865161;-72
2023/04/11 06:09:41;;;;;;;13.60;11.40;;;;;;;3.90;100.00;97601.25;1710694;75;679255;-73
2023/04/11 06:12:14;;;;;;;11.70;10.50;;;;;;;4.02;100.00;97588.91;1686454;75;1919828;-72
2023/04/11 06:14:44;;;;;;;10.00;9.00;;;;;;;4.18;100.00;97598.88;1710909;75;675168;-72
2023/04/11 06:17:14;;;;;;;8.90;8.00;;;;;;;4.15;100.00;97588.91;1702248;75;746481;-72
2023/04/11 06:19:44;;;;;;;12.10;10.90;;;;;;;4.16;100.00;97591.19;1710806;75;675459;-75
2023/04/11 06:22:15;;;;;;;15.90;14.25;;;;;;;4.09;100.00;97593.34;1688460;75;1829961;-71
2023/04/11 06:24:45;;;;;;;15.60;13.20;;;;;;;4.12;100.00;97589.78;1710972;75;672729;-73
2023/04/11 06:27:18;;;;;;;13.30;10.95;;;;;;;4.12;100.00;97578.97;1700793;75;848445;-73
2023/04/11 06:29:48;;;;;;;11.20;10.00;;;;;;;4.29;100.00;97580.34;1711559;75;670996;-73
2023/04/11 06:32:19;;;;;;;10.05;8.65;;;;;;;4.39;100.00;97579.25;1702574;75;739310;-72
2023/04/11 06:34:49;;;;;;;8.90;8.00;;;;;;;4.46;100.00;97584.44;1696211;75;1914840;-72
2023/04/11 06:37:19;;;;;;;9.35;8.20;;;;;;;4.45;100.00;97579.47;1700750;75;801062;-71
2023/04/11 06:39:49;;;;;;;9.35;8.35;;;;;;;4.64;100.00;97578.47;1710360;75;673844;-72
2023/04/11 06:42:22;;;;;;;12.90;11.30;;;;;;;4.53;100.00;97580.00;1701188;75;765663;-72
2023/04/11 06:44:53;;;;;;;12.50;11.20;;;;;;;4.56;100.00;97582.59;1709497;75;701129;-75
2023/04/11 06:47:23;;;;;;;13.35;11.20;;;;;;;4.58;100.00;97585.63;1701221;75;743059;-74
2023/04/11 06:49:54;;;;;;;10.90;9.80;;;;;;;4.86;100.00;97575.03;1710125;75;673315;-72
2023/04/11 06:52:24;;;;;;;11.30;9.55;;;;;;;4.94;100.00;97570.13;1701867;75;730347;-73
2023/04/11 06:54:54;;;;;;;11.30;10.20;;;;;;;4.92;100.00;97570.56;1710040;75;679565;-74
2023/04/11 06:57:27;;;;;;;11.35;8.80;;;;;;;5.06;100.00;97563.88;1701310;75;756961;-71
2023/04/11 06:59:57;;;;;;;10.90;9.50;;;;;;;5.23;100.00;97567.19;1711011;75;676176;-72
2023/04/11 07:02:27;;;;;;;15.15;11.20;;;;;;;5.13;100.00;97561.69;1700583;75;740566;-74
2023/04/11 07:04:58;;;;;;;13.00;10.70;;;;;;;5.17;100.00;97555.38;1709699;75;678259;-72
2023/04/11 07:07:28;;;;;;;11.95;10.55;;;;;;;5.35;100.00;97550.06;1701300;75;761583;-73
2023/04/11 07:09:58;;;;;;;11.45;9.70;;;;;;;5.30;100.00;97554.09;1710487;75;685377;-72
2023/04/11 07:12:31;;;;;;;11.50;10.30;;;;;;;5.34;100.00;97545.84;1702059;75;745962;-73
2023/04/11 07:15:01;;;;;;;10.40;9.20;;;;;;;5.49;100.00;97554.97;1709952;75;682583;-72
2023/04/11 07:17:31;;;;;;;14.00;10.50;;;;;;;5.66;100.00;97544.66;1698810;75;934390;-73
2023/04/11 07:20:03;;;;;;;15.50;10.75;;;;;;;5.55;100.00;97534.19;1707797;75;988089;-73
2023/04/11 07:22:35;;;;;;;11.10;9.40;;;;;;;5.80;100.00;97526.31;1699064;75;861527;-73
2023/04/11 07:25:06;;;;;;;10.35;8.95;;;;;;;5.96;100.00;97516.00;1710521;75;676705;-72
2023/04/11 07:27:42;;;;;;;9.30;8.25;;;;;;;6.12;100.00;97511.53;1702411;75;748204;-71
2023/04/11 07:30:14;;;;;;;8.40;7.45;;;;;;;6.21;100.00;97516.22;1701837;75;676932;-72
2023/04/11 07:32:44;;;;;;;9.70;7.50;;;;;;;6.49;100.00;97519.75;1708531;75;671890;-74
2023/04/11 07:35:15;;;;;;;7.15;6.45;;;;;;;6.62;100.00;97520.38;1701629;75;682417;-72
2023/04/11 07:37:46;;;;;;;12.00;9.70;;;;;;;6.56;99.38;97531.06;1710542;75;680194;-72
2023/04/11 07:40:16;;;;;;;9.70;8.00;;;;;;;6.90;98.35;97525.81;1700679;75;865102;-71
2023/04/11 07:42:50;;;;;;;7.70;6.90;;;;;;;7.17;96.87;97525.81;1712033;75;674265;-72
2023/04/11 07:45:20;;;;;;;10.20;8.60;;;;;;;7.12;97.27;97544.69;1699836;75;947343;-71
2023/04/11 07:47:50;;;;;;;10.30;8.15;;;;;;;7.33;95.50;97543.78;1711594;75;675181;-71
2023/04/11 07:50:21;;;;;;;10.90;8.80;;;;;;;7.16;97.03;97537.16;1703633;75;682592;-73
2023/04/11 07:52:51;;;;;;;11.55;9.15;;;;;;;7.45;96.31;97534.66;1710116;75;778351;-73
2023/04/11 07:55:22;;;;;;;10.60;8.30;;;;;;;7.49;94.50;97526.34;1702434;75;678447;-72
2023/04/11 07:57:54;;;;;;;12.50;9.50;;;;;;;7.57;94.69;97524.06;1711048;75;673388;-72
2023/04/11 08:00:25;;;;;;;12.70;9.20;;;;;;;7.49;95.41;97518.19;1702151;75;687874;-73
2023/04/11 08:02:58;;;;;;;12.90;9.70;;;;;;;7.44;94.24;97502.47;1687207;75;2815155;-73
2023/04/11 08:05:28;;;;;;;11.80;9.30;;;;;;;7.54;93.38;97495.00;1700573;75;882685;-72
2023/04/11 08:07:58;;;;;;;9.60;7.70;;;;;;;7.83;89.98;97499.91;1699235;75;1826209;-72
2023/04/11 08:10:28;;;;;;;10.90;7.50;;;;;;;8.00;87.67;97503.75;1702948;75;817623;-74
2023/04/11 08:13:01;;;;;;;7.10;5.90;;;;;;;8.25;86.46;97504.53;1710400;75;841426;-73
2023/04/11 08:15:33;;;;;;;8.90;6.90;;;;;;;8.23;84.33;97518.66;1688383;75;1988454;-72
2023/04/11 08:18:04;;;;;;;13.40;8.65;;;;;;;8.30;83.67;97504.66;1712585;75;682189;-76
2023/04/11 08:20:34;;;;;;;14.40;10.05;;;;;;;8.50;83.29;97504.09;1700918;75;997028;-73
2023/04/11 08:23:06;;;;;;;12.00;8.00;;;;;;;8.52;81.51;97517.28;1712213;75;718438;-73
2023/04/11 08:25:37;;;;;;;13.40;9.70;;;;;;;8.49;83.08;97508.06;1699622;75;948169;-73
2023/04/11 08:28:11;;;;;;;11.25;9.25;;;;;;;8.65;82.37;97504.16;1712788;75;679546;-73
2023/04/11 08:30:41;;;;;;;8.50;7.00;;;;;;;8.88;81.55;97510.81;1703176;75;755755;-72
2023/04/11 08:33:13;;;;;;;9.25;7.10;;;;;;;8.99;80.38;97502.06;1712322;75;678556;-73
2023/04/11 08:35:44;;;;;;;8.50;6.80;;;;;;;8.98;83.39;97500.56;1700823;75;940574;-73
2023/04/11 08:38:14;;;;;;;11.40;8.50;;;;;;;8.79;84.87;97497.22;1710318;75;836677;-72
2023/04/11 08:40:44;;;;;;;11.20;8.05;;;;;;;8.84;82.27;97488.38;1701523;75;809407;-72
2023/04/11 08:43:18;;;;;;;9.35;7.30;;;;;;;8.89;79.17;97490.47;1712561;75;675900;-74
2023/04/11 08:45:50;;;;;;;9.90;7.60;;;;;;;8.81;78.93;97486.59;1690363;75;1799027;-73
2023/04/11 08:48:24;;;;;;;9.85;7.70;;;;;;;8.89;78.85;97476.81;1699067;75;1836847;-73
2023/04/11 08:50:54;;;;;;;9.50;6.90;;;;;;;9.05;76.83;97480.34;1687634;75;1989489;-71
2023/04/11 08:53:27;;;;;;;8.70;6.80;;;;;;;9.10;76.82;97476.94;1710928;75;799718;-75
2023/04/11 08:56:00;;;;;;;9.15;6.65;;;;;;;9.14;83.51;97475.53;1703083;75;736333;-72
2023/04/11 08:58:33;;;;;;;9.65;6.50;;;;;;;9.32;82.39;97473.84;1710222;75;835352;-75
2023/04/11 09:01:31;;;;;;;10.50;8.30;;;;;;;9.38;83.75;97474.69;1687916;75;1980034;-73
2023/04/11 09:04:03;;;;;;;10.00;7.20;;;;;;;9.33;83.78;97461.66;1702773;75;788122;-72
2023/04/11 09:06:35;;;;;;;14.10;9.80;;;;;;;9.10;84.70;97460.56;1711432;75;740842;-71
2023/04/11 09:09:08;;;;;;;11.40;7.80;;;;;;;9.38;84.53;97456.31;1700144;75;976775;-76
2023/04/11 09:11:54;;;;;;;12.10;8.30;;;;;;;9.13;85.23;97456.88;1712231;75;681599;-74
2023/04/11 09:14:28;;;;;;;14.30;9.30;;;;;;;9.21;85.82;97438.88;1699473;75;968476;-73
2023/04/11 09:17:03;;;;;;;19.50;13.90;;;;;;;9.12;87.49;97428.81;1712420;75;680047;-73
2023/04/11 09:19:35;;;;;;;18.20;11.80;;;;;;;9.16;86.82;97425.88;1701559;75;853778;-73
2023/04/11 09:22:06;;;;;;;16.10;9.90;;;;;;;9.42;87.12;97417.13;1709466;75;899039;-75
2023/04/11 09:24:37;;;;;;;11.10;7.90;;;;;;;9.49;79.86;97409.28;1687937;75;1967903;-74
2023/04/11 09:27:18;;;;;;;9.80;6.10;;;;;;;9.79;78.93;97417.44;1711040;75;789775;-73
2023/04/11 09:29:51;;;;;;;9.75;6.20;;;;;;;9.81;77.59;97417.69;1702593;75;749909;-72
2023/04/11 09:32:32;;;;;;;10.00;7.60;;;;;;;9.67;76.94;97407.53;1711789;75;699222;-74
2023/04/11 09:35:15;;;;;;;9.15;6.40;;;;;;;9.96;75.04;97406.72;1702192;75;744125;-74
2023/04/11 09:37:47;;;;;;;8.10;5.70;;;;;;;10.04;74.18;97407.81;1700856;75;869171;-72
2023/04/11 09:40:20;;;;;;;14.75;10.20;;;;;;;9.66;74.80;97414.25;1711686;75;681937;-73
2023/04/11 09:42:57;;;;;;;11.10;7.50;;;;;;;10.10;74.10;97408.63;1700693;75;949874;-72
2023/04/11 09:45:32;;;;;;;10.60;8.15;;;;;;;9.93;75.38;97407.66;1711424;75;676989;-76
2023/04/11 09:48:05;;;;;;;12.00;7.10;;;;;;;9.97;74.61;97405.47;1703228;75;700284;-71
2023/04/11 09:50:37;;;;;;;11.25;7.90;;;;;;;10.12;73.40;97405.41;1673970;75;3857344;-72
2023/04/11 09:53:09;;;;;;;8.10;6.40;;;;;;;10.13;73.34;97415.13;1660207;75;4026938;-71
2023/04/11 09:55:41;;;;;;;11.60;8.30;;;;;;;9.96;73.09;97406.72;1709135;75;761182;-73
2023/04/11 09:58:14;;;;;;;11.40;8.55;;;;;;;9.96;71.97;97415.66;1676130;75;2846899;-72
2023/04/11 10:00:49;;;;;;;11.65;7.85;;;;;;;10.13;72.89;97415.13;1710114;75;734733;-74
2023/04/11 10:03:22;;;;;;;11.20;8.15;;;;;;;10.29;74.82;97409.13;1689847;75;1669380;-72
2023/04/11 10:05:57;;;;;;;13.85;8.25;;;;;;;10.32;73.79;97399.19;1710580;75;672062;-75
2023/04/11 10:08:32;;;;;;;11.50;7.50;;;;;;;10.27;71.40;97403.38;1698409;75;978465;-72
2023/04/11 10:11:03;;;;;;;9.90;7.40;;;;;;;10.38;71.23;97400.03;1711727;75;675478;-72
2023/04/11 10:13:46;;;;;;;13.15;8.40;;;;;;;10.62;72.61;97395.06;1701933;75;751825;-73
2023/04/11 10:16:21;;;;;;;10.80;6.95;;;;;;;10.65;71.25;97394.13;1676694;75;2881572;-72
2023/04/11 10:19:29;;;;;;;11.15;7.90;;;;;;;10.64;70.92;97417.22;1710796;75;766659;-73
2023/04/11 10:21:59;;;;;;;13.10;9.35;;;;;;;10.55;72.09;97419.38;1702465;75;753153;-74
2023/04/11 10:24:30;;;;;;;10.40;7.50;;;;;;;10.60;73.99;97403.00;1709897;75;826002;-72
2023/04/11 10:27:03;;;;;;;10.75;7.70;;;;;;;10.38;76.26;97389.06;1702665;75;744879;-73
2023/04/11 10:29:49;;;;;;;12.60;7.90;;;;;;;10.37;75.29;97366.44;1711815;75;672941;-75
2023/04/11 10:32:26;;;;;;;9.90;6.90;;;;;;;10.45;73.89;97350.34;1702176;75;744054;-72
2023/04/11 10:35:24;;;;;;;9.40;7.00;;;;;;;10.43;74.26;97350.06;1700057;75;945359;-72
2023/04/11 10:37:55;;;;;;;9.50;6.40;;;;;;;10.70;73.08;97343.34;1703313;75;688198;-73
2023/04/11 10:40:25;;;;;;;9.25;5.45;;;;;;;10.92;71.35;97307.22;1711051;75;692434;-72
2023/04/11 10:42:56;;;;;;;9.55;7.15;;;;;;;10.96;71.04;97305.00;1702894;75;680296;-73
2023/04/11 10:45:28;;;;;;;9.15;6.35;;;;;;;10.90;70.42;97301.47;1710414;75;683074;-73
2023/04/11 10:48:10;;;;;;;10.40;6.60;;;;;;;10.99;69.79;97312.25;1703026;75;676104;-74
2023/04/11 10:50:46;;;;;;;8.40;5.80;;;;;;;11.23;66.31;97297.47;1710815;75;689477;-74
2023/04/11 10:53:39;;;;;;;6.60;5.30;;;;;;;11.45;63.81;97297.59;1704108;75;676114;-74
2023/04/11 10:56:10;;;;;;;8.70;4.60;;;;;;;12.03;62.92;97280.19;1703391;75;680786;-74
2023/04/11 10:58:42;;;;;;;5.35;4.15;;;;;;;12.69;64.04;97275.28;1711468;75;679532;-74
2023/04/11 11:01:20;;;;;;;7.30;4.70;;;;;;;12.86;61.83;97272.53;1677823;75;2796132;-73
2023/04/11 11:03:59;;;;;;;5.60;4.20;;;;;;;13.00;59.94;97293.50;1711399;75;710921;-73
2023/04/11 11:06:30;;;;;;;6.05;4.45;;;;;;;13.18;58.23;97292.97;1701472;75;762331;-73
2023/04/11 11:09:00;;;;;;;7.20;4.65;;;;;;;13.09;59.02;97298.00;1710222;75;805185;-74
2023/04/11 11:11:30;;;;;;;8.30;6.00;;;;;;;13.00;59.32;97293.50;1675753;75;2904864;-72
2023/04/11 11:14:01;;;;;;;8.10;5.55;;;;;;;12.90;59.24;97314.22;1711940;75;678096;-74
2023/04/11 11:16:32;;;;;;;7.25;5.50;;;;;;;12.60;59.75;97300.97;1702904;75;751763;-73
2023/04/11 11:19:05;;;;;;;7.70;5.50;;;;;;;12.41;58.86;97286.22;1712019;75;688442;-73
2023/04/11 11:21:35;;;;;;;8.25;5.65;;;;;;;12.31;59.21;97291.19;1702837;75;750071;-74
2023/04/11 11:24:07;;;;;;;8.15;5.80;;;;;;;12.60;59.75;97292.72;1709370;75;897692;-75
2023/04/11 11:26:41;;;;;;;9.10;5.70;;;;;;;12.65;59.55;97280.25;1688511;75;1923541;-74
2023/04/11 11:29:12;;;;;;;6.30;3.90;;;;;;;13.07;58.81;97276.50;1711290;75;736900;-76
2023/04/11 11:31:44;;;;;;;7.15;4.90;;;;;;;13.21;58.58;97277.47;1702796;75;752457;-74
2023/04/11 11:34:28;;;;;;;6.10;4.20;;;;;;;13.70;58.50;97280.63;1697266;75;1904310;-75
2023/04/11 11:37:00;;;;;;;6.60;4.50;;;;;;;14.00;58.06;97280.75;1700470;75;888778;-77
2023/04/11 11:39:32;;;;;;;8.10;5.60;;;;;;;13.80;58.29;97276.31;1709089;75;926922;-73
2023/04/11 11:42:03;;;;;;;5.75;4.45;;;;;;;14.27;58.10;97270.09;1700994;75;839013;-76
2023/04/11 11:44:34;;;;;;;7.10;5.30;;;;;;;13.75;56.62;97252.31;1710971;75;681376;-73